sensor_id;sensor_type;location;lat;lon;timestamp;P1;durP1;ratioP1;P2;durP2;ratioP2
7047;SDS011;3565;53.254;10.352;2023-06-14T00:01:36;5.63;;;4.10;;
7047;SDS011;3565;53.254;10.352;2023-06-14T00:04:05;6.63;;;4.30;;
7047;SDS011;3565;53.254;10.352;2023-06-14T00:06:35;5.30;;;3.67;;
7047;SDS011;3565;53.254;10.352;2023-06-14T00:09:04;7.00;;;4.47;;
7047;SDS011;3565;53.254;10.352;2023-06-14T00:11:34;5.67;;;4.10;;
7047;SDS011;3565;53.254;10.352;2023-06-14T00:14:05;5.97;;;4.30;;
7047;SDS011;3565;53.254;10.352;2023-06-14T00:16:34;6.20;;;4.50;;
7047;SDS011;3565;53.254;10.352;2023-06-14T00:19:05;5.67;;;4.20;;
7047;SDS011;3565;53.254;10.352;2023-06-14T00:21:34;4.77;;;4.10;;
7047;SDS011;3565;53.254;10.352;2023-06-14T00:24:05;7.30;;;4.20;;
7047;SDS011;3565;53.254;10.352;2023-06-14T00:26:34;5.93;;;4.00;;
7047;SDS011;3565;53.254;10.352;2023-06-14T00:29:03;4.60;;;3.80;;
7047;SDS011;3565;53.254;10.352;2023-06-14T00:34:10;4.77;;;3.87;;
7047;SDS011;3565;53.254;10.352;2023-06-14T00:36:39;7.33;;;3.90;;
7047;SDS011;3565;53.254;10.352;2023-06-14T00:39:07;4.70;;;4.20;;
7047;SDS011;3565;53.254;10.352;2023-06-14T00:41:36;7.97;;;4.00;;
7047;SDS011;3565;53.254;10.352;2023-06-14T00:44:06;6.23;;;4.10;;
7047;SDS011;3565;53.254;10.352;2023-06-14T00:46:35;8.20;;;4.20;;
7047;SDS011;3565;53.254;10.352;2023-06-14T00:49:04;7.07;;;4.07;;
7047;SDS011;3565;53.254;10.352;2023-06-14T00:51:33;5.70;;;4.20;;
7047;SDS011;3565;53.254;10.352;2023-06-14T00:54:03;5.27;;;4.20;;
7047;SDS011;3565;53.254;10.352;2023-06-14T00:59:09;5.93;;;4.03;;
7047;SDS011;3565;53.254;10.352;2023-06-14T01:01:38;6.07;;;4.47;;
7047;SDS011;3565;53.254;10.352;2023-06-14T01:04:08;5.37;;;4.57;;
7047;SDS011;3565;53.254;10.352;2023-06-14T01:06:39;6.30;;;4.10;;
7047;SDS011;3565;53.254;10.352;2023-06-14T01:11:50;5.33;;;3.87;;
7047;SDS011;3565;53.254;10.352;2023-06-14T01:14:23;5.23;;;4.10;;
7047;SDS011;3565;53.254;10.352;2023-06-14T01:17:02;7.73;;;4.40;;
7047;SDS011;3565;53.254;10.352;2023-06-14T01:22:08;5.33;;;4.20;;
7047;SDS011;3565;53.254;10.352;2023-06-14T01:24:38;5.90;;;4.10;;
7047;SDS011;3565;53.254;10.352;2023-06-14T01:27:16;5.43;;;4.00;;
7047;SDS011;3565;53.254;10.352;2023-06-14T01:29:47;7.73;;;4.30;;
7047;SDS011;3565;53.254;10.352;2023-06-14T01:34:52;5.30;;;4.13;;
7047;SDS011;3565;53.254;10.352;2023-06-14T01:37:21;6.00;;;4.30;;
7047;SDS011;3565;53.254;10.352;2023-06-14T01:40:00;6.53;;;4.33;;
7047;SDS011;3565;53.254;10.352;2023-06-14T01:45:08;7.83;;;4.90;;
7047;SDS011;3565;53.254;10.352;2023-06-14T01:47:38;5.97;;;4.03;;
7047;SDS011;3565;53.254;10.352;2023-06-14T01:52:49;5.80;;;4.20;;
7047;SDS011;3565;53.254;10.352;2023-06-14T01:55:19;7.67;;;4.23;;
7047;SDS011;3565;53.254;10.352;2023-06-14T01:57:57;5.97;;;4.10;;
7047;SDS011;3565;53.254;10.352;2023-06-14T02:03:03;5.13;;;4.30;;
7047;SDS011;3565;53.254;10.352;2023-06-14T02:05:32;4.43;;;4.03;;
7047;SDS011;3565;53.254;10.352;2023-06-14T02:08:01;7.33;;;4.50;;
7047;SDS011;3565;53.254;10.352;2023-06-14T02:10:40;6.00;;;4.33;;
7047;SDS011;3565;53.254;10.352;2023-06-14T02:15:45;5.20;;;4.23;;
7047;SDS011;3565;53.254;10.352;2023-06-14T02:18:16;5.37;;;4.23;;
7047;SDS011;3565;53.254;10.352;2023-06-14T02:20:55;5.50;;;4.33;;
7047;SDS011;3565;53.254;10.352;2023-06-14T02:26:01;8.27;;;4.33;;
7047;SDS011;3565;53.254;10.352;2023-06-14T02:28:30;5.43;;;4.70;;
7047;SDS011;3565;53.254;10.352;2023-06-14T02:30:59;6.57;;;4.40;;
7047;SDS011;3565;53.254;10.352;2023-06-14T02:33:37;6.73;;;4.57;;
7047;SDS011;3565;53.254;10.352;2023-06-14T02:36:07;6.07;;;4.50;;
7047;SDS011;3565;53.254;10.352;2023-06-14T02:38:45;7.67;;;4.47;;
7047;SDS011;3565;53.254;10.352;2023-06-14T02:43:51;5.83;;;4.77;;
7047;SDS011;3565;53.254;10.352;2023-06-14T02:46:20;5.90;;;4.53;;
7047;SDS011;3565;53.254;10.352;2023-06-14T02:48:59;7.27;;;4.37;;
7047;SDS011;3565;53.254;10.352;2023-06-14T02:54:05;6.47;;;4.67;;
7047;SDS011;3565;53.254;10.352;2023-06-14T02:56:34;7.57;;;4.70;;
7047;SDS011;3565;53.254;10.352;2023-06-14T02:59:03;6.60;;;4.53;;
7047;SDS011;3565;53.254;10.352;2023-06-14T03:04:09;6.80;;;4.30;;
7047;SDS011;3565;53.254;10.352;2023-06-14T03:06:38;6.30;;;4.77;;
7047;SDS011;3565;53.254;10.352;2023-06-14T03:09:08;7.43;;;4.70;;
7047;SDS011;3565;53.254;10.352;2023-06-14T03:11:37;6.17;;;4.60;;
7047;SDS011;3565;53.254;10.352;2023-06-14T03:14:06;7.73;;;5.47;;
7047;SDS011;3565;53.254;10.352;2023-06-14T03:16:35;7.03;;;4.47;;
7047;SDS011;3565;53.254;10.352;2023-06-14T03:19:04;9.67;;;5.50;;
7047;SDS011;3565;53.254;10.352;2023-06-14T03:21:33;5.53;;;4.73;;
7047;SDS011;3565;53.254;10.352;2023-06-14T03:24:03;6.57;;;4.83;;
7047;SDS011;3565;53.254;10.352;2023-06-14T03:26:33;7.53;;;4.97;;
7047;SDS011;3565;53.254;10.352;2023-06-14T03:29:03;5.97;;;4.40;;
7047;SDS011;3565;53.254;10.352;2023-06-14T03:34:09;6.67;;;4.70;;
7047;SDS011;3565;53.254;10.352;2023-06-14T03:36:38;8.87;;;4.93;;
7047;SDS011;3565;53.254;10.352;2023-06-14T03:39:07;8.87;;;4.80;;
7047;SDS011;3565;53.254;10.352;2023-06-14T03:41:45;8.40;;;5.23;;
7047;SDS011;3565;53.254;10.352;2023-06-14T03:44:15;7.07;;;4.73;;
7047;SDS011;3565;53.254;10.352;2023-06-14T03:46:53;6.60;;;4.57;;
7047;SDS011;3565;53.254;10.352;2023-06-14T03:51:59;10.10;;;5.20;;
7047;SDS011;3565;53.254;10.352;2023-06-14T03:54:28;7.57;;;5.33;;
7047;SDS011;3565;53.254;10.352;2023-06-14T03:57:07;6.07;;;5.10;;
7047;SDS011;3565;53.254;10.352;2023-06-14T03:59:36;6.40;;;4.87;;
7047;SDS011;3565;53.254;10.352;2023-06-14T04:04:42;10.10;;;5.57;;
7047;SDS011;3565;53.254;10.352;2023-06-14T04:07:11;7.53;;;5.63;;
7047;SDS011;3565;53.254;10.352;2023-06-14T04:12:17;7.60;;;5.87;;
7047;SDS011;3565;53.254;10.352;2023-06-14T04:14:46;7.43;;;5.33;;
7047;SDS011;3565;53.254;10.352;2023-06-14T04:17:16;10.30;;;5.63;;
7047;SDS011;3565;53.254;10.352;2023-06-14T04:19:54;7.90;;;5.60;;
7047;SDS011;3565;53.254;10.352;2023-06-14T04:25:02;6.87;;;6.03;;
7047;SDS011;3565;53.254;10.352;2023-06-14T04:27:32;7.03;;;5.30;;
7047;SDS011;3565;53.254;10.352;2023-06-14T04:30:03;7.70;;;5.20;;
7047;SDS011;3565;53.254;10.352;2023-06-14T04:32:33;7.80;;;5.27;;
7047;SDS011;3565;53.254;10.352;2023-06-14T04:37:33;8.03;;;5.77;;
7047;SDS011;3565;53.254;10.352;2023-06-14T04:40:05;7.17;;;5.73;;
7047;SDS011;3565;53.254;10.352;2023-06-14T04:42:44;8.30;;;5.80;;
7047;SDS011;3565;53.254;10.352;2023-06-14T04:47:52;10.43;;;5.90;;
7047;SDS011;3565;53.254;10.352;2023-06-14T04:50:23;7.93;;;5.60;;
7047;SDS011;3565;53.254;10.352;2023-06-14T04:53:01;7.93;;;6.17;;
7047;SDS011;3565;53.254;10.352;2023-06-14T04:55:32;17.33;;;6.00;;
7047;SDS011;3565;53.254;10.352;2023-06-14T05:00:39;7.30;;;5.70;;
7047;SDS011;3565;53.254;10.352;2023-06-14T05:05:47;8.23;;;5.43;;
7047;SDS011;3565;53.254;10.352;2023-06-14T05:10:56;5.93;;;5.10;;
7047;SDS011;3565;53.254;10.352;2023-06-14T05:13:25;7.40;;;5.10;;
7047;SDS011;3565;53.254;10.352;2023-06-14T05:16:04;11.90;;;5.50;;
7047;SDS011;3565;53.254;10.352;2023-06-14T05:18:43;6.97;;;5.23;;
7047;SDS011;3565;53.254;10.352;2023-06-14T05:21:12;8.80;;;4.90;;
7047;SDS011;3565;53.254;10.352;2023-06-14T05:23:54;7.87;;;5.33;;
7047;SDS011;3565;53.254;10.352;2023-06-14T05:29:01;7.83;;;4.63;;
7047;SDS011;3565;53.254;10.352;2023-06-14T05:31:30;7.83;;;5.43;;
7047;SDS011;3565;53.254;10.352;2023-06-14T05:34:09;5.37;;;4.37;;
7047;SDS011;3565;53.254;10.352;2023-06-14T05:36:38;7.97;;;4.70;;
7047;SDS011;3565;53.254;10.352;2023-06-14T05:39:07;7.20;;;4.57;;
7047;SDS011;3565;53.254;10.352;2023-06-14T05:41:36;6.33;;;4.60;;
7047;SDS011;3565;53.254;10.352;2023-06-14T05:44:05;5.00;;;4.20;;
7047;SDS011;3565;53.254;10.352;2023-06-14T05:46:35;7.90;;;4.63;;
7047;SDS011;3565;53.254;10.352;2023-06-14T05:49:06;5.63;;;4.27;;
7047;SDS011;3565;53.254;10.352;2023-06-14T05:51:35;6.03;;;3.93;;
7047;SDS011;3565;53.254;10.352;2023-06-14T05:54:04;5.83;;;4.60;;
7047;SDS011;3565;53.254;10.352;2023-06-14T05:56:33;5.20;;;4.37;;
7047;SDS011;3565;53.254;10.352;2023-06-14T05:59:02;6.30;;;3.93;;
7047;SDS011;3565;53.254;10.352;2023-06-14T06:04:08;6.27;;;4.40;;
7047;SDS011;3565;53.254;10.352;2023-06-14T06:06:37;5.27;;;3.97;;
7047;SDS011;3565;53.254;10.352;2023-06-14T06:09:06;4.23;;;3.83;;
7047;SDS011;3565;53.254;10.352;2023-06-14T06:11:35;3.97;;;3.37;;
7047;SDS011;3565;53.254;10.352;2023-06-14T06:14:13;6.67;;;3.83;;
7047;SDS011;3565;53.254;10.352;2023-06-14T06:16:43;5.00;;;3.70;;
7047;SDS011;3565;53.254;10.352;2023-06-14T06:21:49;5.07;;;3.80;;
7047;SDS011;3565;53.254;10.352;2023-06-14T06:24:18;3.60;;;3.30;;
7047;SDS011;3565;53.254;10.352;2023-06-14T06:26:57;5.50;;;3.50;;
7047;SDS011;3565;53.254;10.352;2023-06-14T06:32:04;5.97;;;3.70;;
7047;SDS011;3565;53.254;10.352;2023-06-14T06:34:34;5.17;;;3.90;;
7047;SDS011;3565;53.254;10.352;2023-06-14T06:39:41;6.40;;;3.80;;
7047;SDS011;3565;53.254;10.352;2023-06-14T06:42:10;7.20;;;3.63;;
7047;SDS011;3565;53.254;10.352;2023-06-14T06:44:49;5.70;;;3.90;;
7047;SDS011;3565;53.254;10.352;2023-06-14T06:49:55;5.00;;;3.47;;
7047;SDS011;3565;53.254;10.352;2023-06-14T06:52:24;6.33;;;3.70;;
7047;SDS011;3565;53.254;10.352;2023-06-14T06:55:03;6.83;;;4.40;;
7047;SDS011;3565;53.254;10.352;2023-06-14T06:57:33;4.30;;;3.40;;
7047;SDS011;3565;53.254;10.352;2023-06-14T07:00:02;3.67;;;3.37;;
7047;SDS011;3565;53.254;10.352;2023-06-14T07:02:36;5.93;;;4.13;;
7047;SDS011;3565;53.254;10.352;2023-06-14T07:05:05;4.80;;;3.77;;
7047;SDS011;3565;53.254;10.352;2023-06-14T07:07:35;4.63;;;3.90;;
7047;SDS011;3565;53.254;10.352;2023-06-14T07:10:05;5.33;;;3.93;;
7047;SDS011;3565;53.254;10.352;2023-06-14T07:12:35;4.07;;;3.67;;
7047;SDS011;3565;53.254;10.352;2023-06-14T07:15:07;3.87;;;3.57;;
7047;SDS011;3565;53.254;10.352;2023-06-14T07:17:45;5.00;;;4.00;;
7047;SDS011;3565;53.254;10.352;2023-06-14T07:22:51;4.67;;;3.70;;
7047;SDS011;3565;53.254;10.352;2023-06-14T07:25:21;4.50;;;4.10;;
7047;SDS011;3565;53.254;10.352;2023-06-14T07:27:59;4.83;;;3.90;;
7047;SDS011;3565;53.254;10.352;2023-06-14T07:33:06;4.00;;;3.60;;
7047;SDS011;3565;53.254;10.352;2023-06-14T07:35:36;5.17;;;3.70;;
7047;SDS011;3565;53.254;10.352;2023-06-14T07:40:42;5.37;;;3.65;;
7047;SDS011;3565;53.254;10.352;2023-06-14T07:45:49;3.50;;;3.12;;
7047;SDS011;3565;53.254;10.352;2023-06-14T07:50:55;3.17;;;2.80;;
7047;SDS011;3565;53.254;10.352;2023-06-14T07:53:25;5.17;;;3.10;;
7047;SDS011;3565;53.254;10.352;2023-06-14T07:56:04;3.62;;;2.77;;
7047;SDS011;3565;53.254;10.352;2023-06-14T07:58:33;4.85;;;3.05;;
7047;SDS011;3565;53.254;10.352;2023-06-14T08:03:39;3.37;;;2.92;;
7047;SDS011;3565;53.254;10.352;2023-06-14T08:08:45;4.15;;;2.75;;
7047;SDS011;3565;53.254;10.352;2023-06-14T08:11:14;3.12;;;2.77;;
7047;SDS011;3565;53.254;10.352;2023-06-14T08:13:52;4.30;;;3.12;;
7047;SDS011;3565;53.254;10.352;2023-06-14T08:18:59;4.12;;;3.37;;
7047;SDS011;3565;53.254;10.352;2023-06-14T08:24:07;4.03;;;3.05;;
7047;SDS011;3565;53.254;10.352;2023-06-14T08:26:36;3.50;;;3.20;;
7047;SDS011;3565;53.254;10.352;2023-06-14T08:29:05;4.65;;;3.50;;
7047;SDS011;3565;53.254;10.352;2023-06-14T08:31:34;4.58;;;3.35;;
7047;SDS011;3565;53.254;10.352;2023-06-14T08:34:03;4.62;;;3.62;;
7047;SDS011;3565;53.254;10.352;2023-06-14T08:39:10;3.20;;;2.92;;
7047;SDS011;3565;53.254;10.352;2023-06-14T08:41:39;6.20;;;3.27;;
7047;SDS011;3565;53.254;10.352;2023-06-14T08:44:10;4.92;;;3.47;;
7047;SDS011;3565;53.254;10.352;2023-06-14T08:46:48;4.17;;;2.90;;
7047;SDS011;3565;53.254;10.352;2023-06-14T08:51:57;5.17;;;3.62;;
7047;SDS011;3565;53.254;10.352;2023-06-14T08:54:28;4.40;;;3.67;;
7047;SDS011;3565;53.254;10.352;2023-06-14T08:59:36;6.22;;;3.55;;
7047;SDS011;3565;53.254;10.352;2023-06-14T09:02:09;5.33;;;3.65;;
7047;SDS011;3565;53.254;10.352;2023-06-14T09:04:47;4.83;;;3.72;;
7047;SDS011;3565;53.254;10.352;2023-06-14T09:10:04;5.25;;;3.47;;
7047;SDS011;3565;53.254;10.352;2023-06-14T09:12:36;5.03;;;3.50;;
7047;SDS011;3565;53.254;10.352;2023-06-14T09:15:07;6.15;;;3.50;;
7047;SDS011;3565;53.254;10.352;2023-06-14T09:17:46;4.37;;;3.42;;
7047;SDS011;3565;53.254;10.352;2023-06-14T09:22:53;4.60;;;3.47;;
7047;SDS011;3565;53.254;10.352;2023-06-14T09:25:22;5.87;;;3.50;;
7047;SDS011;3565;53.254;10.352;2023-06-14T09:28:00;6.17;;;3.75;;
7047;SDS011;3565;53.254;10.352;2023-06-14T09:33:08;4.20;;;3.60;;
7047;SDS011;3565;53.254;10.352;2023-06-14T09:35:37;6.72;;;3.15;;
7047;SDS011;3565;53.254;10.352;2023-06-14T09:38:16;4.53;;;3.27;;
7047;SDS011;3565;53.254;10.352;2023-06-14T09:43:22;6.42;;;3.58;;
7047;SDS011;3565;53.254;10.352;2023-06-14T09:45:53;4.45;;;3.30;;
7047;SDS011;3565;53.254;10.352;2023-06-14T09:51:00;5.60;;;3.20;;
7047;SDS011;3565;53.254;10.352;2023-06-14T09:53:31;4.03;;;3.70;;
7047;SDS011;3565;53.254;10.352;2023-06-14T09:58:40;7.42;;;3.67;;
7047;SDS011;3565;53.254;10.352;2023-06-14T10:01:09;8.58;;;3.22;;
7047;SDS011;3565;53.254;10.352;2023-06-14T10:03:48;4.97;;;3.40;;
7047;SDS011;3565;53.254;10.352;2023-06-14T10:08:58;5.28;;;2.90;;
7047;SDS011;3565;53.254;10.352;2023-06-14T10:14:05;4.22;;;3.40;;
7047;SDS011;3565;53.254;10.352;2023-06-14T10:16:37;3.83;;;3.42;;
7047;SDS011;3565;53.254;10.352;2023-06-14T10:21:46;4.70;;;3.45;;
7047;SDS011;3565;53.254;10.352;2023-06-14T10:24:20;5.47;;;2.98;;
7047;SDS011;3565;53.254;10.352;2023-06-14T10:26:53;7.22;;;3.10;;
7047;SDS011;3565;53.254;10.352;2023-06-14T10:32:02;4.03;;;3.60;;
7047;SDS011;3565;53.254;10.352;2023-06-14T10:34:32;3.52;;;3.20;;
7047;SDS011;3565;53.254;10.352;2023-06-14T10:37:01;5.65;;;3.33;;
7047;SDS011;3565;53.254;10.352;2023-06-14T10:42:10;6.15;;;3.30;;
7047;SDS011;3565;53.254;10.352;2023-06-14T10:44:40;5.03;;;3.33;;
7047;SDS011;3565;53.254;10.352;2023-06-14T10:47:24;5.28;;;3.60;;
7047;SDS011;3565;53.254;10.352;2023-06-14T10:50:02;9.83;;;3.67;;
7047;SDS011;3565;53.254;10.352;2023-06-14T10:55:10;5.33;;;3.50;;
7047;SDS011;3565;53.254;10.352;2023-06-14T10:57:42;4.22;;;3.80;;
7047;SDS011;3565;53.254;10.352;2023-06-14T11:00:13;5.60;;;3.75;;
7047;SDS011;3565;53.254;10.352;2023-06-14T11:02:49;5.28;;;3.22;;
7047;SDS011;3565;53.254;10.352;2023-06-14T11:05:51;6.08;;;3.40;;
7047;SDS011;3565;53.254;10.352;2023-06-14T11:11:05;5.67;;;3.50;;
7047;SDS011;3565;53.254;10.352;2023-06-14T11:13:45;5.92;;;3.52;;
7047;SDS011;3565;53.254;10.352;2023-06-14T11:16:14;4.95;;;3.65;;
7047;SDS011;3565;53.254;10.352;2023-06-14T11:18:45;6.13;;;3.70;;
7047;SDS011;3565;53.254;10.352;2023-06-14T11:21:18;4.70;;;3.40;;
7047;SDS011;3565;53.254;10.352;2023-06-14T11:23:56;8.90;;;3.63;;
7047;SDS011;3565;53.254;10.352;2023-06-14T11:29:03;9.00;;;3.57;;
7047;SDS011;3565;53.254;10.352;2023-06-14T11:31:32;10.53;;;3.93;;
7047;SDS011;3565;53.254;10.352;2023-06-14T11:34:01;5.53;;;3.62;;
7047;SDS011;3565;53.254;10.352;2023-06-14T11:36:40;4.57;;;3.27;;
7047;SDS011;3565;53.254;10.352;2023-06-14T11:41:46;6.08;;;3.33;;
7047;SDS011;3565;53.254;10.352;2023-06-14T11:44:15;7.33;;;3.80;;
7047;SDS011;3565;53.254;10.352;2023-06-14T11:46:54;4.03;;;3.57;;
7047;SDS011;3565;53.254;10.352;2023-06-14T11:52:02;4.25;;;3.10;;
7047;SDS011;3565;53.254;10.352;2023-06-14T11:54:32;6.83;;;3.47;;
7047;SDS011;3565;53.254;10.352;2023-06-14T11:59:39;6.00;;;3.02;;
7047;SDS011;3565;53.254;10.352;2023-06-14T12:02:13;12.47;;;3.85;;
7047;SDS011;3565;53.254;10.352;2023-06-14T12:04:52;8.60;;;3.70;;
7047;SDS011;3565;53.254;10.352;2023-06-14T12:10:05;9.77;;;3.27;;
7047;SDS011;3565;53.254;10.352;2023-06-14T12:12:37;4.08;;;3.12;;
7047;SDS011;3565;53.254;10.352;2023-06-14T12:15:07;5.23;;;3.43;;
7047;SDS011;3565;53.254;10.352;2023-06-14T12:17:47;3.87;;;3.23;;
7047;SDS011;3565;53.254;10.352;2023-06-14T12:22:54;6.23;;;3.40;;
7047;SDS011;3565;53.254;10.352;2023-06-14T12:25:28;7.62;;;3.80;;
7047;SDS011;3565;53.254;10.352;2023-06-14T12:28:06;7.45;;;3.40;;
7047;SDS011;3565;53.254;10.352;2023-06-14T12:30:45;6.60;;;3.47;;
7047;SDS011;3565;53.254;10.352;2023-06-14T12:35:54;20.52;;;3.27;;
7047;SDS011;3565;53.254;10.352;2023-06-14T12:41:01;6.42;;;3.30;;
7047;SDS011;3565;53.254;10.352;2023-06-14T12:43:30;4.55;;;3.05;;
7047;SDS011;3565;53.254;10.352;2023-06-14T12:46:08;6.17;;;3.00;;
7047;SDS011;3565;53.254;10.352;2023-06-14T12:48:37;4.22;;;3.12;;
7047;SDS011;3565;53.254;10.352;2023-06-14T12:53:43;7.53;;;3.30;;
7047;SDS011;3565;53.254;10.352;2023-06-14T12:58:49;4.90;;;3.30;;
7047;SDS011;3565;53.254;10.352;2023-06-14T13:01:28;4.55;;;3.17;;
7047;SDS011;3565;53.254;10.352;2023-06-14T13:03:57;4.83;;;3.12;;
7047;SDS011;3565;53.254;10.352;2023-06-14T13:06:36;4.85;;;3.20;;
7047;SDS011;3565;53.254;10.352;2023-06-14T13:11:46;5.20;;;3.08;;
7047;SDS011;3565;53.254;10.352;2023-06-14T13:14:16;3.65;;;2.85;;
7047;SDS011;3565;53.254;10.352;2023-06-14T13:16:54;6.62;;;3.37;;
7047;SDS011;3565;53.254;10.352;2023-06-14T13:22:02;5.03;;;2.85;;
7047;SDS011;3565;53.254;10.352;2023-06-14T13:24:31;4.83;;;3.15;;
7047;SDS011;3565;53.254;10.352;2023-06-14T13:27:09;3.42;;;2.80;;
7047;SDS011;3565;53.254;10.352;2023-06-14T13:29:40;3.42;;;2.67;;
7047;SDS011;3565;53.254;10.352;2023-06-14T13:34:47;6.58;;;3.08;;
7047;SDS011;3565;53.254;10.352;2023-06-14T13:39:54;4.58;;;2.98;;
7047;SDS011;3565;53.254;10.352;2023-06-14T13:42:23;3.12;;;2.65;;
7047;SDS011;3565;53.254;10.352;2023-06-14T13:45:02;5.35;;;2.83;;
7047;SDS011;3565;53.254;10.352;2023-06-14T13:50:10;3.70;;;2.70;;
7047;SDS011;3565;53.254;10.352;2023-06-14T13:52:39;4.80;;;2.75;;
7047;SDS011;3565;53.254;10.352;2023-06-14T13:55:09;4.45;;;3.00;;
7047;SDS011;3565;53.254;10.352;2023-06-14T13:57:48;4.28;;;2.72;;
7047;SDS011;3565;53.254;10.352;2023-06-14T14:02:55;6.85;;;2.77;;
7047;SDS011;3565;53.254;10.352;2023-06-14T14:05:26;4.05;;;3.10;;
7047;SDS011;3565;53.254;10.352;2023-06-14T14:10:42;4.12;;;2.90;;
7047;SDS011;3565;53.254;10.352;2023-06-14T14:13:12;3.27;;;2.70;;
7047;SDS011;3565;53.254;10.352;2023-06-14T14:15:50;4.47;;;2.90;;
7047;SDS011;3565;53.254;10.352;2023-06-14T14:20:57;4.78;;;2.95;;
7047;SDS011;3565;53.254;10.352;2023-06-14T14:23:28;3.67;;;2.80;;
7047;SDS011;3565;53.254;10.352;2023-06-14T14:26:08;6.47;;;3.25;;
7047;SDS011;3565;53.254;10.352;2023-06-14T14:28:38;7.92;;;3.30;;
7047;SDS011;3565;53.254;10.352;2023-06-14T14:31:08;5.12;;;3.20;;
7047;SDS011;3565;53.254;10.352;2023-06-14T14:33:46;6.00;;;2.98;;
7047;SDS011;3565;53.254;10.352;2023-06-14T14:38:52;4.67;;;3.00;;
7047;SDS011;3565;53.254;10.352;2023-06-14T14:41:22;4.35;;;3.10;;
7047;SDS011;3565;53.254;10.352;2023-06-14T14:44:02;4.53;;;3.10;;
7047;SDS011;3565;53.254;10.352;2023-06-14T14:49:08;3.98;;;2.98;;
7047;SDS011;3565;53.254;10.352;2023-06-14T14:51:37;9.43;;;3.00;;
7047;SDS011;3565;53.254;10.352;2023-06-14T14:54:07;3.50;;;2.87;;
7047;SDS011;3565;53.254;10.352;2023-06-14T14:56:45;6.15;;;3.37;;
7047;SDS011;3565;53.254;10.352;2023-06-14T14:59:14;3.50;;;3.20;;
7047;SDS011;3565;53.254;10.352;2023-06-14T15:01:43;4.35;;;2.90;;
7047;SDS011;3565;53.254;10.352;2023-06-14T15:06:50;5.40;;;3.42;;
7047;SDS011;3565;53.254;10.352;2023-06-14T15:11:56;5.43;;;3.33;;
7047;SDS011;3565;53.254;10.352;2023-06-14T15:14:25;6.65;;;3.17;;
7047;SDS011;3565;53.254;10.352;2023-06-14T15:17:05;6.55;;;3.42;;
7047;SDS011;3565;53.254;10.352;2023-06-14T15:19:34;6.67;;;3.27;;
7047;SDS011;3565;53.254;10.352;2023-06-14T15:24:44;4.20;;;3.30;;
7047;SDS011;3565;53.254;10.352;2023-06-14T15:29:50;7.20;;;3.40;;
7047;SDS011;3565;53.254;10.352;2023-06-14T15:32:19;4.83;;;2.97;;
7047;SDS011;3565;53.254;10.352;2023-06-14T15:34:58;4.07;;;3.20;;
7047;SDS011;3565;53.254;10.352;2023-06-14T15:40:05;3.90;;;3.30;;
7047;SDS011;3565;53.254;10.352;2023-06-14T15:42:35;3.83;;;3.10;;
7047;SDS011;3565;53.254;10.352;2023-06-14T15:45:05;4.50;;;3.40;;
7047;SDS011;3565;53.254;10.352;2023-06-14T15:47:36;5.80;;;3.70;;
7047;SDS011;3565;53.254;10.352;2023-06-14T15:50:07;6.23;;;3.10;;
7047;SDS011;3565;53.254;10.352;2023-06-14T15:52:37;6.37;;;3.23;;
7047;SDS011;3565;53.254;10.352;2023-06-14T15:55:07;6.90;;;3.10;;
7047;SDS011;3565;53.254;10.352;2023-06-14T15:57:36;5.30;;;3.30;;
7047;SDS011;3565;53.254;10.352;2023-06-14T16:00:07;3.80;;;3.33;;
7047;SDS011;3565;53.254;10.352;2023-06-14T16:02:37;5.50;;;3.12;;
7047;SDS011;3565;53.254;10.352;2023-06-14T16:05:06;5.08;;;3.33;;
7047;SDS011;3565;53.254;10.352;2023-06-14T16:07:36;3.52;;;3.05;;
7047;SDS011;3565;53.254;10.352;2023-06-14T16:10:06;5.92;;;3.00;;
7047;SDS011;3565;53.254;10.352;2023-06-14T16:12:36;6.37;;;2.90;;
7047;SDS011;3565;53.254;10.352;2023-06-14T16:15:07;5.67;;;3.10;;
7047;SDS011;3565;53.254;10.352;2023-06-14T16:17:37;5.80;;;3.00;;
7047;SDS011;3565;53.254;10.352;2023-06-14T16:20:07;4.20;;;2.90;;
7047;SDS011;3565;53.254;10.352;2023-06-14T16:22:37;4.17;;;3.10;;
7047;SDS011;3565;53.254;10.352;2023-06-14T16:25:07;5.70;;;3.07;;
7047;SDS011;3565;53.254;10.352;2023-06-14T16:27:37;5.83;;;2.87;;
7047;SDS011;3565;53.254;10.352;2023-06-14T16:30:07;3.50;;;2.92;;
7047;SDS011;3565;53.254;10.352;2023-06-14T16:32:37;3.47;;;3.17;;
7047;SDS011;3565;53.254;10.352;2023-06-14T16:35:07;5.23;;;2.93;;
7047;SDS011;3565;53.254;10.352;2023-06-14T16:37:36;6.57;;;3.43;;
7047;SDS011;3565;53.254;10.352;2023-06-14T16:40:07;5.85;;;3.05;;
7047;SDS011;3565;53.254;10.352;2023-06-14T16:42:37;4.13;;;2.73;;
7047;SDS011;3565;53.254;10.352;2023-06-14T16:45:07;6.53;;;2.90;;
7047;SDS011;3565;53.254;10.352;2023-06-14T16:47:38;3.80;;;2.92;;
7047;SDS011;3565;53.254;10.352;2023-06-14T16:50:08;6.95;;;3.37;;
7047;SDS011;3565;53.254;10.352;2023-06-14T16:52:37;6.80;;;3.03;;
7047;SDS011;3565;53.254;10.352;2023-06-14T16:55:07;6.50;;;2.90;;
7047;SDS011;3565;53.254;10.352;2023-06-14T16:57:37;3.93;;;2.80;;
7047;SDS011;3565;53.254;10.352;2023-06-14T17:00:07;4.57;;;3.00;;
7047;SDS011;3565;53.254;10.352;2023-06-14T17:02:37;3.50;;;3.10;;
7047;SDS011;3565;53.254;10.352;2023-06-14T17:05:07;3.23;;;2.93;;
7047;SDS011;3565;53.254;10.352;2023-06-14T17:07:36;6.53;;;2.60;;
7047;SDS011;3565;53.254;10.352;2023-06-14T17:10:07;6.07;;;2.93;;
7047;SDS011;3565;53.254;10.352;2023-06-14T17:12:36;3.77;;;2.60;;
7047;SDS011;3565;53.254;10.352;2023-06-14T17:15:08;5.07;;;2.80;;
7047;SDS011;3565;53.254;10.352;2023-06-14T17:17:38;2.93;;;2.63;;
7047;SDS011;3565;53.254;10.352;2023-06-14T17:20:08;3.53;;;2.60;;
7047;SDS011;3565;53.254;10.352;2023-06-14T17:22:38;4.20;;;2.63;;
7047;SDS011;3565;53.254;10.352;2023-06-14T17:25:09;5.50;;;3.00;;
7047;SDS011;3565;53.254;10.352;2023-06-14T17:27:38;7.37;;;3.30;;
7047;SDS011;3565;53.254;10.352;2023-06-14T17:30:08;4.37;;;2.90;;
7047;SDS011;3565;53.254;10.352;2023-06-14T17:32:38;3.30;;;2.70;;
7047;SDS011;3565;53.254;10.352;2023-06-14T17:35:08;5.67;;;2.87;;
7047;SDS011;3565;53.254;10.352;2023-06-14T17:37:39;3.67;;;2.70;;
7047;SDS011;3565;53.254;10.352;2023-06-14T17:40:09;7.27;;;3.00;;
7047;SDS011;3565;53.254;10.352;2023-06-14T17:42:48;4.23;;;2.53;;
7047;SDS011;3565;53.254;10.352;2023-06-14T17:47:54;6.87;;;3.17;;
7047;SDS011;3565;53.254;10.352;2023-06-14T17:50:23;4.60;;;2.97;;
7047;SDS011;3565;53.254;10.352;2023-06-14T17:53:02;5.77;;;3.10;;
7047;SDS011;3565;53.254;10.352;2023-06-14T17:55:32;4.63;;;2.90;;
7047;SDS011;3565;53.254;10.352;2023-06-14T17:58:01;5.13;;;3.03;;
7047;SDS011;3565;53.254;10.352;2023-06-14T18:00:32;4.97;;;2.90;;
7047;SDS011;3565;53.254;10.352;2023-06-14T18:03:01;5.37;;;3.10;;
7047;SDS011;3565;53.254;10.352;2023-06-14T18:08:19;7.30;;;2.80;;
7047;SDS011;3565;53.254;10.352;2023-06-14T18:10:47;6.50;;;3.03;;
7047;SDS011;3565;53.254;10.352;2023-06-14T18:13:16;5.53;;;2.90;;
7047;SDS011;3565;53.254;10.352;2023-06-14T18:18:22;3.80;;;2.60;;
7047;SDS011;3565;53.254;10.352;2023-06-14T18:20:51;5.43;;;2.67;;
7047;SDS011;3565;53.254;10.352;2023-06-14T18:23:20;5.67;;;3.07;;
7047;SDS011;3565;53.254;10.352;2023-06-14T18:25:59;4.03;;;3.17;;
7047;SDS011;3565;53.254;10.352;2023-06-14T18:31:05;4.63;;;2.77;;
7047;SDS011;3565;53.254;10.352;2023-06-14T18:33:34;3.83;;;3.13;;
7047;SDS011;3565;53.254;10.352;2023-06-14T18:36:03;3.47;;;2.67;;
7047;SDS011;3565;53.254;10.352;2023-06-14T18:38:42;3.43;;;2.80;;
7047;SDS011;3565;53.254;10.352;2023-06-14T18:41:12;3.57;;;2.87;;
7047;SDS011;3565;53.254;10.352;2023-06-14T18:43:51;7.73;;;2.70;;
7047;SDS011;3565;53.254;10.352;2023-06-14T18:48:57;5.70;;;3.03;;
7047;SDS011;3565;53.254;10.352;2023-06-14T18:51:26;7.70;;;2.67;;
7047;SDS011;3565;53.254;10.352;2023-06-14T18:54:05;3.10;;;2.80;;
7047;SDS011;3565;53.254;10.352;2023-06-14T18:56:34;4.30;;;2.70;;
7047;SDS011;3565;53.254;10.352;2023-06-14T18:59:04;4.23;;;2.73;;
7047;SDS011;3565;53.254;10.352;2023-06-14T19:01:33;4.83;;;2.63;;
7047;SDS011;3565;53.254;10.352;2023-06-14T19:04:03;4.87;;;2.80;;
7047;SDS011;3565;53.254;10.352;2023-06-14T19:06:32;5.37;;;2.80;;